createdAt,value
2022-09-16T00:00:28.535Z,9.27
2022-09-16T00:02:56.789Z,9.29
2022-09-16T00:05:23.465Z,9.32
2022-09-16T00:07:50.638Z,9.41
2022-09-16T00:10:17.451Z,9.46
2022-09-16T00:12:44.257Z,9.59
2022-09-16T00:15:11.082Z,9.47
2022-09-16T00:17:37.702Z,9.50
2022-09-16T00:20:05.618Z,9.48
2022-09-16T00:22:33.095Z,9.54
2022-09-16T00:24:59.825Z,9.66
2022-09-16T00:27:26.630Z,9.74
2022-09-16T00:29:53.209Z,9.68
2022-09-16T00:32:19.860Z,9.67
2022-09-16T00:34:46.618Z,9.76
2022-09-16T00:37:13.346Z,9.75
2022-09-16T00:39:39.928Z,9.80
2022-09-16T00:42:06.854Z,9.64
2022-09-16T00:44:52.149Z,9.72
2022-09-16T00:47:30.612Z,9.69
2022-09-16T00:50:03.396Z,9.69
2022-09-16T00:52:31.213Z,9.64
2022-09-16T00:55:00.846Z,9.70
2022-09-16T00:57:27.531Z,9.66
2022-09-16T00:59:55.625Z,9.61
2022-09-16T01:02:23.917Z,9.64
2022-09-16T01:05:02.521Z,9.49
2022-09-16T01:07:42.003Z,9.47
2022-09-16T01:10:09.608Z,9.42
2022-09-16T01:12:36.899Z,9.27
2022-09-16T01:15:05.752Z,9.31
2022-09-16T01:18:00.078Z,9.32
2022-09-16T01:20:42.403Z,9.31
2022-09-16T01:23:47.018Z,9.32
2022-09-16T01:26:22.618Z,9.41
2022-09-16T01:29:11.176Z,9.36
2022-09-16T01:31:52.937Z,9.55
2022-09-16T01:34:26.482Z,9.64
2022-09-16T01:36:59.113Z,9.58
2022-09-16T01:39:48.179Z,9.75
2022-09-16T01:42:38.289Z,9.75
2022-09-16T01:45:45.513Z,9.61
2022-09-16T01:48:36.709Z,9.49
2022-09-16T01:51:25.956Z,9.29
2022-09-16T01:54:18.989Z,9.13
2022-09-16T01:57:01.917Z,8.95
2022-09-16T02:00:00.992Z,8.93
2022-09-16T02:02:35.812Z,9.02
2022-09-16T02:05:08.680Z,8.74
2022-09-16T02:07:39.669Z,8.85
2022-09-16T02:10:18.450Z,9.23
2022-09-16T02:12:46.841Z,9.43
2022-09-16T02:15:17.804Z,9.56
2022-09-16T02:17:52.564Z,9.63
2022-09-16T02:20:26.106Z,9.77
2022-09-16T02:22:59.941Z,9.76
2022-09-16T02:25:29.240Z,9.64
2022-09-16T02:27:59.863Z,9.71
2022-09-16T02:30:26.609Z,9.65
2022-09-16T02:33:00.623Z,9.73
2022-09-16T02:35:28.373Z,9.32
2022-09-16T02:38:02.944Z,9.40
2022-09-16T02:40:37.999Z,9.73
2022-09-16T02:43:04.872Z,9.70
2022-09-16T02:45:46.587Z,9.53
2022-09-16T02:48:18.503Z,9.41
2022-09-16T02:50:53.573Z,9.30
2022-09-16T02:53:36.590Z,8.94
2022-09-16T02:56:12.001Z,9.32
2022-09-16T02:58:38.763Z,9.38
2022-09-16T03:01:06.150Z,9.30
2022-09-16T03:03:33.121Z,9.35
2022-09-16T03:06:08.828Z,9.30
2022-09-16T03:08:37.115Z,9.29
2022-09-16T03:11:15.895Z,9.34
2022-09-16T03:14:08.521Z,9.39
2022-09-16T03:16:53.782Z,9.41
2022-09-16T03:19:44.659Z,9.48
2022-09-16T03:22:17.087Z,9.48
2022-09-16T03:25:15.743Z,9.29
2022-09-16T03:28:12.218Z,9.46
2022-09-16T03:31:02.866Z,8.52
2022-09-16T03:33:38.842Z,9.28
2022-09-16T03:36:09.527Z,9.05
2022-09-16T03:38:38.928Z,8.96
2022-09-16T03:41:07.257Z,9.07
2022-09-16T03:43:34.078Z,8.98
2022-09-16T03:46:03.812Z,9.22
2022-09-16T03:48:30.500Z,9.20
2022-09-16T03:50:57.630Z,9.20
2022-09-16T03:53:24.387Z,9.07
2022-09-16T03:55:50.996Z,9.18
2022-09-16T03:58:17.690Z,9.19
2022-09-16T04:00:48.785Z,9.37
2022-09-16T04:03:15.449Z,9.29
2022-09-16T04:05:42.204Z,9.20
2022-09-16T04:08:08.924Z,9.30
2022-09-16T04:10:35.576Z,9.22
2022-09-16T04:13:02.278Z,9.11
2022-09-16T04:15:28.914Z,9.09
2022-09-16T04:17:55.702Z,8.82
2022-09-16T04:20:22.368Z,8.86
2022-09-16T04:22:49.050Z,8.91
2022-09-16T04:25:15.643Z,9.01
2022-09-16T04:27:42.468Z,8.87
2022-09-16T04:30:09.875Z,8.79
2022-09-16T04:32:36.522Z,8.95
2022-09-16T04:35:03.579Z,9.00
2022-09-16T04:37:30.901Z,8.95
2022-09-16T04:40:00.979Z,8.84
2022-09-16T04:42:30.627Z,8.93
2022-09-16T04:44:57.259Z,8.85
2022-09-16T04:47:23.903Z,8.73
2022-09-16T04:49:53.585Z,8.76
2022-09-16T04:52:20.251Z,8.68
2022-09-16T04:54:46.943Z,8.58
2022-09-16T04:57:13.849Z,8.60
2022-09-16T04:59:40.424Z,8.63
2022-09-16T05:02:07.289Z,8.62
2022-09-16T05:04:33.937Z,8.67
2022-09-16T05:07:00.569Z,8.85
2022-09-16T05:09:27.138Z,8.91
2022-09-16T05:11:54.158Z,8.79
2022-09-16T05:14:20.722Z,8.69
2022-09-16T05:16:47.486Z,8.86
2022-09-16T05:19:14.628Z,8.59
2022-09-16T05:21:42.188Z,8.38
2022-09-16T05:24:10.712Z,8.53
2022-09-16T05:26:40.521Z,8.55
2022-09-16T05:29:10.668Z,8.50
2022-09-16T05:31:39.603Z,8.48
2022-09-16T05:34:17.715Z,7.99
2022-09-16T05:36:46.009Z,8.18
2022-09-16T05:39:28.195Z,8.29
2022-09-16T05:41:57.721Z,8.31
2022-09-16T05:44:25.362Z,8.34
2022-09-16T05:46:53.435Z,8.33
2022-09-16T05:49:20.220Z,8.35
2022-09-16T05:51:48.393Z,8.21
2022-09-16T05:54:15.317Z,8.44
2022-09-16T05:56:42.069Z,8.41
2022-09-16T05:59:12.021Z,8.51
2022-09-16T06:01:39.499Z,8.83
2022-09-16T06:04:10.607Z,8.92
2022-09-16T06:06:42.295Z,8.82
2022-09-16T06:09:10.478Z,8.86
2022-09-16T06:11:39.735Z,8.53
2022-09-16T06:14:07.564Z,8.75
2022-09-16T06:16:35.227Z,8.58
2022-09-16T06:19:04.803Z,8.73
2022-09-16T06:21:31.426Z,8.62
2022-09-16T06:23:58.400Z,8.26
2022-09-16T06:26:26.746Z,8.28
2022-09-16T06:28:54.086Z,8.54
2022-09-16T06:31:24.570Z,8.57
2022-09-16T06:33:52.293Z,8.51
2022-09-16T06:36:22.176Z,8.67
2022-09-16T06:38:49.946Z,8.69
2022-09-16T06:41:18.264Z,8.54
2022-09-16T06:43:45.919Z,8.63
2022-09-16T06:46:19.915Z,8.73
2022-09-16T06:48:48.830Z,8.38
2022-09-16T06:51:22.415Z,8.75
2022-09-16T06:53:50.196Z,8.78
2022-09-16T06:56:19.168Z,8.75
2022-09-16T06:58:49.854Z,8.83
2022-09-16T07:01:23.246Z,8.95
2022-09-16T07:03:52.300Z,9.29
2022-09-16T07:06:20.718Z,9.18
2022-09-16T07:08:48.082Z,9.34
2022-09-16T07:11:20.281Z,9.53
2022-09-16T07:13:48.974Z,9.64
2022-09-16T07:16:18.613Z,9.79
2022-09-16T07:18:46.013Z,9.82
2022-09-16T07:21:21.207Z,9.50
2022-09-16T07:23:47.899Z,9.60
2022-09-16T07:26:20.158Z,9.58
2022-09-16T07:28:49.038Z,9.51
2022-09-16T07:31:19.412Z,9.43
2022-09-16T07:33:49.263Z,9.44
2022-09-16T07:36:24.867Z,9.29
2022-09-16T07:38:52.626Z,9.46
2022-09-16T07:41:22.171Z,9.52
2022-09-16T07:43:50.226Z,9.39
2022-09-16T07:46:18.484Z,9.23
2022-09-16T07:48:48.982Z,9.53
2022-09-16T07:51:21.506Z,9.35
2022-09-16T07:53:49.102Z,9.69
2022-09-16T07:56:19.425Z,10.08
2022-09-16T07:58:47.362Z,10.22
2022-09-16T08:01:16.192Z,9.95
2022-09-16T08:03:44.665Z,9.97
2022-09-16T08:06:14.771Z,9.91
2022-09-16T08:08:42.152Z,9.82
2022-09-16T08:11:09.429Z,9.65
2022-09-16T08:13:37.782Z,9.90
2022-09-16T08:16:10.822Z,10.14
2022-09-16T08:18:38.103Z,9.98
2022-09-16T08:21:06.941Z,10.15
2022-09-16T08:23:35.015Z,10.21
2022-09-16T08:26:02.193Z,10.07
2022-09-16T08:28:39.879Z,10.08
2022-09-16T08:31:17.730Z,10.57
2022-09-16T08:33:44.822Z,10.18
2022-09-16T08:36:17.802Z,10.05
2022-09-16T08:38:45.205Z,10.54
2022-09-16T08:41:46.108Z,10.31
2022-09-16T08:44:42.210Z,10.33
2022-09-16T08:47:42.979Z,10.57
2022-09-16T08:50:26.014Z,10.44
2022-09-16T08:52:56.950Z,10.60
2022-09-16T08:55:32.794Z,10.47
2022-09-16T08:58:10.901Z,10.35
2022-09-16T09:00:39.269Z,10.50
2022-09-16T09:03:34.937Z,10.56
2022-09-16T09:06:06.589Z,10.67
2022-09-16T09:08:45.373Z,10.51
2022-09-16T09:11:30.619Z,10.36
2022-09-16T09:14:22.178Z,10.95
2022-09-16T09:17:18.823Z,11.21
2022-09-16T09:20:09.912Z,11.72
2022-09-16T09:22:36.877Z,12.16
2022-09-16T09:25:06.339Z,12.31
2022-09-16T09:27:48.239Z,11.97
2022-09-16T09:30:23.746Z,11.55
2022-09-16T09:33:41.324Z,11.36
2022-09-16T09:36:32.715Z,11.60
2022-09-16T09:39:13.601Z,11.54
2022-09-16T09:41:46.574Z,11.52
2022-09-16T09:44:38.037Z,11.75
2022-09-16T09:47:12.517Z,11.75
2022-09-16T09:49:46.603Z,11.99
2022-09-16T09:52:32.492Z,12.03
2022-09-16T09:55:16.163Z,11.66
2022-09-16T09:58:11.139Z,11.85
2022-09-16T10:00:38.385Z,12.04
2022-09-16T10:03:17.245Z,12.13
2022-09-16T10:05:46.041Z,12.08
2022-09-16T10:08:29.948Z,11.89
2022-09-16T10:11:02.039Z,11.75
2022-09-16T10:13:30.249Z,11.57
2022-09-16T10:16:14.717Z,11.78
2022-09-16T10:18:42.351Z,11.49
2022-09-16T10:21:15.360Z,11.25
2022-09-16T10:23:54.120Z,10.85
2022-09-16T10:26:26.957Z,10.39
2022-09-16T10:29:16.092Z,10.07
2022-09-16T10:31:43.546Z,9.61
2022-09-16T10:34:33.569Z,9.72
2022-09-16T10:37:10.349Z,9.41
2022-09-16T10:39:39.482Z,9.68
2022-09-16T10:42:17.204Z,9.69
2022-09-16T10:44:44.095Z,10.30
2022-09-16T10:47:21.923Z,10.76
2022-09-16T10:49:54.581Z,10.93
2022-09-16T10:52:27.385Z,10.67
2022-09-16T10:54:54.966Z,10.98
2022-09-16T10:57:27.413Z,11.28
2022-09-16T11:00:17.467Z,11.41
2022-09-16T11:03:18.417Z,11.65
2022-09-16T11:05:56.348Z,11.69
2022-09-16T11:08:43.998Z,11.99
2022-09-16T11:11:28.632Z,12.11
2022-09-16T11:13:55.239Z,12.53
2022-09-16T11:16:27.834Z,12.76
2022-09-16T11:19:12.690Z,12.89
2022-09-16T11:21:59.194Z,12.80
2022-09-16T11:24:47.979Z,12.96
2022-09-16T11:27:45.332Z,13.08
2022-09-16T11:30:14.550Z,13.02
2022-09-16T11:33:02.585Z,13.31
2022-09-16T11:35:40.126Z,13.43
2022-09-16T11:38:27.896Z,13.33
2022-09-16T11:41:09.120Z,13.24
2022-09-16T11:43:59.904Z,13.30
2022-09-16T11:46:50.204Z,13.46
2022-09-16T11:49:38.308Z,13.84
2022-09-16T11:52:13.777Z,13.82
2022-09-16T11:55:17.215Z,13.53
2022-09-16T11:57:57.080Z,13.73
2022-09-16T12:00:23.985Z,13.44
2022-09-16T12:03:25.986Z,13.19
2022-09-16T12:05:59.176Z,13.45
2022-09-16T12:08:54.073Z,13.26
2022-09-16T12:11:46.486Z,13.43
2022-09-16T12:14:25.909Z,13.27
2022-09-16T12:16:58.903Z,13.00
2022-09-16T12:19:41.066Z,12.86
2022-09-16T12:22:22.132Z,13.15
2022-09-16T12:24:57.795Z,13.25
2022-09-16T12:27:33.946Z,13.25
2022-09-16T12:30:03.934Z,13.43
2022-09-16T12:32:52.147Z,13.48
2022-09-16T12:36:08.536Z,13.77
2022-09-16T12:38:35.462Z,14.07
2022-09-16T12:41:11.199Z,14.16
2022-09-16T12:44:33.077Z,14.29
2022-09-16T12:47:38.842Z,14.22
2022-09-16T12:50:14.253Z,13.99
2022-09-16T12:53:02.477Z,14.10
2022-09-16T12:55:35.223Z,14.49
2022-09-16T12:58:04.660Z,14.84
2022-09-16T13:00:34.317Z,14.86
2022-09-16T13:03:10.441Z,14.99
2022-09-16T13:05:39.412Z,14.43
2022-09-16T13:08:25.434Z,14.27
2022-09-16T13:11:19.303Z,14.29
2022-09-16T13:13:52.522Z,14.51
2022-09-16T13:16:38.076Z,14.39
2022-09-16T13:19:30.058Z,14.79
2022-09-16T13:22:39.276Z,14.84
2022-09-16T13:25:25.270Z,14.61
2022-09-16T13:28:33.473Z,14.54
2022-09-16T13:31:12.526Z,14.50
2022-09-16T13:33:45.016Z,14.76
2022-09-16T13:36:16.882Z,14.94
2022-09-16T13:38:48.213Z,15.01
2022-09-16T13:41:28.683Z,15.00
2022-09-16T13:43:55.557Z,15.20
2022-09-16T13:46:38.154Z,15.24
2022-09-16T13:49:15.651Z,15.44
2022-09-16T13:51:45.104Z,15.69
2022-09-16T13:55:06.300Z,15.27
2022-09-16T13:57:45.879Z,15.31
2022-09-16T14:00:12.703Z,15.09
2022-09-16T14:02:57.875Z,14.85
2022-09-16T14:05:30.634Z,14.65
2022-09-16T14:08:22.117Z,14.70
2022-09-16T14:11:07.283Z,14.46
2022-09-16T14:13:51.060Z,14.39
2022-09-16T14:16:24.772Z,14.09
2022-09-16T14:19:25.230Z,14.37
2022-09-16T14:22:27.705Z,14.22
2022-09-16T14:25:05.978Z,14.27
2022-09-16T14:27:40.204Z,14.28
2022-09-16T14:30:18.587Z,14.09
2022-09-16T14:32:47.425Z,13.80
2022-09-16T14:35:21.537Z,13.53
2022-09-16T14:37:57.231Z,13.49
2022-09-16T14:40:25.759Z,13.34
2022-09-16T14:42:58.248Z,13.42
2022-09-16T14:45:25.117Z,13.59
2022-09-16T14:47:54.031Z,13.13
2022-09-16T14:50:27.191Z,13.01
2022-09-16T14:52:55.508Z,12.97
2022-09-16T14:55:26.124Z,12.97
2022-09-16T14:57:53.010Z,12.86
2022-09-16T15:00:30.521Z,12.88
2022-09-16T15:03:20.380Z,13.10
2022-09-16T15:05:47.576Z,13.00
2022-09-16T15:08:19.929Z,13.10
2022-09-16T15:10:52.533Z,13.13
2022-09-16T15:13:22.830Z,13.07
2022-09-16T15:15:54.195Z,12.87
2022-09-16T15:18:32.136Z,12.80
2022-09-16T15:21:28.176Z,12.70
2022-09-16T15:23:58.625Z,12.72
2022-09-16T15:26:40.544Z,13.05
2022-09-16T15:29:24.937Z,13.21
2022-09-16T15:31:52.114Z,13.24
2022-09-16T15:34:20.363Z,13.17
2022-09-16T15:36:49.652Z,12.83
2022-09-16T15:39:33.980Z,12.99
2022-09-16T15:42:21.133Z,13.07
2022-09-16T15:44:50.241Z,12.85
2022-09-16T15:47:28.700Z,12.95
2022-09-16T15:50:07.272Z,12.89
2022-09-16T15:52:49.765Z,13.14
2022-09-16T15:55:40.541Z,12.93
2022-09-16T15:58:22.043Z,12.85
2022-09-16T16:01:12.935Z,12.63
2022-09-16T16:03:45.264Z,12.47
2022-09-16T16:06:12.752Z,12.51
2022-09-16T16:08:44.603Z,12.77
2022-09-16T16:11:22.009Z,12.68
2022-09-16T16:13:49.569Z,12.32
2022-09-16T16:16:17.276Z,12.21
2022-09-16T16:18:45.602Z,12.15
2022-09-16T16:21:14.542Z,12.02
2022-09-16T16:23:41.552Z,11.77
2022-09-16T16:26:10.306Z,11.70
2022-09-16T16:28:37.499Z,11.64
2022-09-16T16:31:08.093Z,11.60
2022-09-16T16:33:34.834Z,11.41
2022-09-16T16:36:01.614Z,11.47
2022-09-16T16:38:28.246Z,11.46
2022-09-16T16:40:54.807Z,11.25
2022-09-16T16:43:21.984Z,11.22
2022-09-16T16:45:58.041Z,10.95
2022-09-16T16:48:27.735Z,10.71
2022-09-16T16:50:59.795Z,10.84
2022-09-16T16:53:27.958Z,10.70
2022-09-16T16:55:55.156Z,10.97
2022-09-16T16:58:21.921Z,11.06
2022-09-16T17:00:48.509Z,10.92
2022-09-16T17:03:16.199Z,10.88
2022-09-16T17:05:42.904Z,10.97
2022-09-16T17:08:09.593Z,11.00
2022-09-16T17:10:36.417Z,10.99
2022-09-16T17:13:03.008Z,10.71
2022-09-16T17:15:29.687Z,10.77
2022-09-16T17:17:56.505Z,10.62
2022-09-16T17:20:23.101Z,10.72
2022-09-16T17:22:49.751Z,10.36
2022-09-16T17:25:16.436Z,10.42
2022-09-16T17:27:43.027Z,10.33
2022-09-16T17:30:10.099Z,10.32
2022-09-16T17:32:37.059Z,10.42
2022-09-16T17:35:03.809Z,10.32
2022-09-16T17:37:30.495Z,10.14
2022-09-16T17:39:57.179Z,10.06
2022-09-16T17:42:23.963Z,9.74
2022-09-16T17:44:50.605Z,10.03
2022-09-16T17:47:17.283Z,10.01
2022-09-16T17:49:43.856Z,9.94
2022-09-16T17:52:10.671Z,9.64
2022-09-16T17:54:37.439Z,9.61
2022-09-16T17:57:04.193Z,9.63
2022-09-16T17:59:30.860Z,9.28
2022-09-16T18:01:57.657Z,9.59
2022-09-16T18:04:24.365Z,9.58
2022-09-16T18:06:50.986Z,9.40
2022-09-16T18:09:17.644Z,9.42
2022-09-16T18:11:44.571Z,9.32
2022-09-16T18:14:12.923Z,9.45
2022-09-16T18:16:40.465Z,9.58
2022-09-16T18:19:08.817Z,9.51
2022-09-16T18:21:35.757Z,9.12
2022-09-16T18:24:04.430Z,9.50
2022-09-16T18:26:32.203Z,9.34
2022-09-16T18:29:16.671Z,9.12
2022-09-16T18:31:46.529Z,9.40
2022-09-16T18:34:14.288Z,9.01
2022-09-16T18:36:41.445Z,9.39
2022-09-16T18:39:12.444Z,9.29
2022-09-16T18:41:40.715Z,9.22
2022-09-16T18:44:17.707Z,9.12
2022-09-16T18:46:44.438Z,9.10
2022-09-16T18:49:12.957Z,8.89
2022-09-16T18:51:41.980Z,9.11
2022-09-16T18:54:13.204Z,8.99
2022-09-16T18:56:40.987Z,9.03
2022-09-16T18:59:22.134Z,8.70
2022-09-16T19:01:52.111Z,8.54
2022-09-16T19:04:21.627Z,8.08
2022-09-16T19:06:51.930Z,8.25
2022-09-16T19:09:20.704Z,8.46
2022-09-16T19:11:48.273Z,8.36
2022-09-16T19:14:14.991Z,8.64
2022-09-16T19:16:43.761Z,8.62
2022-09-16T19:19:13.160Z,8.62
2022-09-16T19:21:40.289Z,8.39
2022-09-16T19:24:10.858Z,8.24
2022-09-16T19:26:37.896Z,8.28
2022-09-16T19:29:06.507Z,8.06
2022-09-16T19:31:36.053Z,8.22
2022-09-16T19:34:04.789Z,7.84
2022-09-16T19:36:32.880Z,8.22
2022-09-16T19:38:59.922Z,8.03
2022-09-16T19:41:30.024Z,7.97
2022-09-16T19:43:59.479Z,7.68
2022-09-16T19:46:27.468Z,7.72
2022-09-16T19:48:55.512Z,7.96
2022-09-16T19:51:23.880Z,7.86
2022-09-16T19:53:53.099Z,7.61
2022-09-16T19:56:26.269Z,7.69
2022-09-16T19:58:54.101Z,7.57
2022-09-16T20:01:32.402Z,7.42
2022-09-16T20:03:59.971Z,7.40
2022-09-16T20:06:44.537Z,6.94
2022-09-16T20:09:12.886Z,7.35
2022-09-16T20:11:43.784Z,7.42
2022-09-16T20:14:16.935Z,7.38
2022-09-16T20:16:43.784Z,7.26
2022-09-16T20:19:13.446Z,7.22
2022-09-16T20:21:41.401Z,7.08
2022-09-16T20:24:14.955Z,7.15
2022-09-16T20:26:41.784Z,7.20
2022-09-16T20:29:08.538Z,7.12
2022-09-16T20:31:36.695Z,7.32
2022-09-16T20:34:04.995Z,7.36
2022-09-16T20:36:35.750Z,7.34
2022-09-16T20:39:03.352Z,6.92
2022-09-16T20:41:32.094Z,7.13
2022-09-16T20:43:59.507Z,6.96
2022-09-16T20:46:29.072Z,7.41
2022-09-16T20:48:58.147Z,7.41
2022-09-16T21:08:43.915Z,7.46
2022-09-16T21:11:14.459Z,7.13
2022-09-16T21:13:46.852Z,7.34
2022-09-16T21:16:15.692Z,6.54
2022-09-16T21:18:43.053Z,6.88
2022-09-16T21:21:13.993Z,7.15
2022-09-16T21:23:41.217Z,6.17
2022-09-16T21:26:16.379Z,7.25
2022-09-16T21:28:44.825Z,7.08
2022-09-16T21:31:13.799Z,7.02
2022-09-16T21:33:42.579Z,7.00
2022-09-16T21:36:10.723Z,7.05
2022-09-16T21:38:38.026Z,6.98
2022-09-16T21:41:06.929Z,6.65
2022-09-16T21:43:38.832Z,7.20
2022-09-16T21:46:10.000Z,7.33
2022-09-16T21:48:36.840Z,6.91
2022-09-16T21:51:06.151Z,7.26
2022-09-16T21:53:35.135Z,7.19
2022-09-16T21:56:03.399Z,7.09
2022-09-16T21:58:30.150Z,6.72
2022-09-16T22:01:19.524Z,6.95
2022-09-16T22:03:52.535Z,6.98
2022-09-16T22:06:19.450Z,6.35
2022-09-16T22:08:49.149Z,6.40
2022-09-16T22:11:18.620Z,6.49
2022-09-16T22:13:46.117Z,5.99
2022-09-16T22:16:24.533Z,6.83
2022-09-16T22:18:51.279Z,6.15
2022-09-16T22:21:17.958Z,6.71
2022-09-16T22:23:44.611Z,6.63
2022-09-16T22:26:13.753Z,6.46
2022-09-16T22:28:41.150Z,6.82
2022-09-16T22:31:17.096Z,6.84
2022-09-16T22:33:45.567Z,6.89
2022-09-16T22:36:14.799Z,6.32
2022-09-16T22:38:46.091Z,6.74
2022-09-16T22:41:13.740Z,6.77
2022-09-16T22:43:45.541Z,7.13
2022-09-16T22:46:14.872Z,7.16
2022-09-16T22:48:42.761Z,7.05
2022-09-16T22:51:11.732Z,7.16
2022-09-16T22:53:38.847Z,7.14
2022-09-16T22:56:09.586Z,6.79
2022-09-16T22:58:36.990Z,7.07
2022-09-16T23:01:10.355Z,7.07
2022-09-16T23:03:37.895Z,5.93
2022-09-16T23:06:08.854Z,7.17
2022-09-16T23:08:37.638Z,7.30
2022-09-16T23:11:06.479Z,6.93
2022-09-16T23:13:34.558Z,7.07
2022-09-16T23:16:04.438Z,7.22
2022-09-16T23:18:32.911Z,7.21
2022-09-16T23:21:02.197Z,6.75
2022-09-16T23:23:30.149Z,6.74
2022-09-16T23:25:57.310Z,7.17
2022-09-16T23:28:23.990Z,7.01
2022-09-16T23:30:50.717Z,6.60
2022-09-16T23:33:17.459Z,6.89
2022-09-16T23:35:50.321Z,7.50
2022-09-16T23:38:17.137Z,6.43
2022-09-16T23:40:43.799Z,6.09
2022-09-16T23:43:10.540Z,6.76
2022-09-16T23:45:37.624Z,6.92
2022-09-16T23:48:05.330Z,7.29
2022-09-16T23:50:31.928Z,6.67
2022-09-16T23:52:59.189Z,7.01
2022-09-16T23:55:26.583Z,6.78
2022-09-16T23:57:58.208Z,7.10
